Tropical Cyclones
[Index]
Main Index Home Page Stock Weather Photos Extreme Storms Discussion Storm News and Storm Chasing Reports Tropical Cyclones / Hurricanes / Typhoons Weather Data and Links Wild Fires / Bushfires Weather Observation Techniques Weather Picture Catalogue Tornado Pictures and Reports Stock Video Footage and DVDs for sale
Season 1990-1991 Tropical Cyclone FIFI Track Map
Season 1990-1991 Summaries: [BoM-AU] [JTWC-AU] [JTWC-SIO] [JTWC-SPAC] [JTWC-SH]
<<- Previous TC | JTWC 1990-1991 Season | Next TC ->>

click for intensity scale information  Lat/long Grid: Show Hide

 Date Labels: Show Hide

Joint Typhoon Warning Centre Cyclone Data

Name: FIFI

14 Apr 1991 18:00 UTC to 21 Apr 1991 00:00 UTC

    date/time    lat    long     hPa   cat  kts
1991-04-14 18   12.1   102.7                  20          
1991-04-15 00   12.3   102.5                  20          
1991-04-15 06   12.4   102.5                  20          
1991-04-15 12   12.5   102.4                  25          
1991-04-15 18   12.5   102.3                  25          
1991-04-16 00   12.4   102.2                  30          
1991-04-16 06   12.4   102.1                  30          
1991-04-16 12   12.5   102.1                  30          
1991-04-16 18   12.6   102.1                  35          
1991-04-17 00   12.8   102.1                  35          
1991-04-17 06   13.5   102.2                  35          
1991-04-17 12   14.2   102.2            1     45          
1991-04-17 18   14.9   102.2            1     50          
1991-04-18 00   15.7   102.3            2     55          
1991-04-18 06   16.4   102.5            2     55          
1991-04-18 12   17.3   102.8            2     55          
1991-04-18 18   18.4   103.2            2     55          
1991-04-19 00   19.5   103.6            2     55          
1991-04-19 06   20.8   104.4            2     55          
1991-04-19 12   22.3   105.2            1     50          
1991-04-19 18   24.2   106.1            1     50          
1991-04-20 00   26.2   107.1            1     45          
1991-04-20 06   28.3   108.2            1     45          
1991-04-20 12   30.0   109.5            1     45          
1991-04-20 18   31.5   110.9            1     45          
1991-04-21 00   33.0   112.7            1     45          
Winds are 1-min average.

Tropical cyclone tracks developed by Michael Bath using data from the Joint Typhoon Warning Centre Best Tracks and Google Maps.


[Australian Severe Weather index] [Copyright Notice] [Email Contacts] [Search This Site] [Privacy Policy]
Document: tropical_cyclone_fifi.htm Updated: 18 September 2016